Terminal Aerodrome Forecast
Issued by NWS Bismarck, ND

Home | Current Version | Previous Version | Text Only | Print | Product List | Glossary Off
Versions: 1 2 3 4 5 6 7 8 9 10 11 12 13 14 15 16 17 18 19 20 21 22 23

000
FTUS43 KBIS 092038 AAB
TAFBIS
TAF AMD
KBIS 092038Z 0921/1018 26011KT P6SM SCT250
     FM100000 30009KT P6SM FEW150 SCT250 WS020/32045KT
     FM101600 29010KT P6SM SCT200=

USA.gov is the U.S. government's official web portal to all federal, state and local government web resources and services.